Lake Louise, Canada
Current Conditions -  °F | °C
As of 11:00 AM on Friday 21 Nov 2014 (Local Time) from CYBW Reporting Station
Clear Clear  
Wind Chill: 36°   Ceiling: Unl
Heat Index: 45°   Visibility: 9mi
Dew Point: 23°   Wind: 23mph
Humidity: 43%   Direction: 280°W
Pressure: 29.56"   Gusts: NA
Location:  51.43°N, 116.18°W
Report Text: CYBW 211800Z AUTO 28020KT 9SM CLR 07/M05 A2956 RMK SLP035 DENSITY ALT 4300FT
Loading
Personal Weather Stations






























Interactive Weather Map New forecast layout! Learn more

10-Day Weather Forecast

Advertisements
Track Severe Weather on mobile